createdAt,value
2022-12-03T00:01:14.197Z,75.13
2022-12-03T00:03:46.804Z,74.84
2022-12-03T00:06:19.616Z,75.59
2022-12-03T00:08:52.127Z,74.94
2022-12-03T00:11:24.616Z,75.34
2022-12-03T00:13:57.144Z,75.73
2022-12-03T00:16:29.826Z,75.14
2022-12-03T00:19:02.632Z,74.66
2022-12-03T00:21:35.373Z,74.93
2022-12-03T00:24:08.560Z,75.38
2022-12-03T00:26:41.092Z,75.23
2022-12-03T00:29:14.233Z,75.62
2022-12-03T00:31:46.865Z,75.33
2022-12-03T00:34:19.504Z,75.58
2022-12-03T00:36:52.017Z,75.73
2022-12-03T00:39:24.552Z,75.91
2022-12-03T00:41:57.058Z,75.06
2022-12-03T00:44:29.606Z,75.39
2022-12-03T00:47:02.135Z,75.68
2022-12-03T00:49:34.692Z,75.43
2022-12-03T00:52:07.293Z,74.82
2022-12-03T00:54:39.792Z,74.86
2022-12-03T00:57:12.359Z,75.00
2022-12-03T00:59:44.896Z,75.20
2022-12-03T01:02:17.444Z,75.05
2022-12-03T01:04:50.221Z,75.04
2022-12-03T01:07:22.981Z,75.64
2022-12-03T01:09:55.503Z,75.03
2022-12-03T01:12:27.993Z,75.48
2022-12-03T01:15:00.487Z,75.02
2022-12-03T01:17:33.118Z,75.13
2022-12-03T01:20:07.891Z,75.54
2022-12-03T01:22:40.384Z,75.39
2022-12-03T01:25:12.894Z,75.22
2022-12-03T01:27:45.470Z,75.94
2022-12-03T01:30:18.088Z,75.58
2022-12-03T01:32:50.668Z,75.92
2022-12-03T01:35:23.211Z,75.01
2022-12-03T01:37:55.740Z,75.40
2022-12-03T01:40:28.217Z,74.95
2022-12-03T01:43:01.068Z,76.17
2022-12-03T01:45:33.647Z,75.49
2022-12-03T01:48:06.560Z,76.03
2022-12-03T01:50:39.101Z,76.04
2022-12-03T01:53:16.466Z,75.22
2022-12-03T01:55:49.212Z,76.00
2022-12-03T01:58:29.687Z,75.79
2022-12-03T02:01:17.919Z,75.60
2022-12-03T02:03:50.605Z,76.03
2022-12-03T02:06:29.797Z,75.28
2022-12-03T02:09:02.713Z,76.40
2022-12-03T02:11:49.487Z,75.50
2022-12-03T02:14:22.378Z,75.47
2022-12-03T02:16:54.941Z,75.39
2022-12-03T02:19:31.963Z,76.17
2022-12-03T02:22:28.743Z,75.37
2022-12-03T02:25:13.262Z,75.72
2022-12-03T02:27:47.802Z,75.60
2022-12-03T02:30:23.833Z,76.02
2022-12-03T02:32:58.006Z,75.18
2022-12-03T02:35:35.221Z,75.93
2022-12-03T02:38:23.034Z,75.58
2022-12-03T02:41:02.140Z,75.17
2022-12-03T02:43:34.784Z,76.04
2022-12-03T02:46:08.631Z,76.16
2022-12-03T02:48:41.804Z,75.59
2022-12-03T02:51:14.387Z,75.17
2022-12-03T02:53:51.935Z,75.78
2022-12-03T02:56:30.527Z,76.06
2022-12-03T02:59:05.718Z,75.68
2022-12-03T03:01:38.480Z,75.73
2022-12-03T03:04:11.422Z,76.29
2022-12-03T03:06:44.445Z,75.98
2022-12-03T03:09:17.333Z,75.81
2022-12-03T03:11:49.844Z,75.54
2022-12-03T03:14:22.485Z,75.93
2022-12-03T03:16:57.915Z,75.77
2022-12-03T03:19:30.784Z,75.73
2022-12-03T03:22:03.768Z,76.32
2022-12-03T03:24:36.768Z,75.96
2022-12-03T03:27:09.705Z,76.18
2022-12-03T03:29:42.287Z,76.35
2022-12-03T03:32:14.944Z,76.28
2022-12-03T03:34:47.725Z,75.52
2022-12-03T03:37:20.547Z,76.04
2022-12-03T03:39:53.490Z,75.92
2022-12-03T03:42:26.200Z,76.12
2022-12-03T03:44:59.303Z,76.55
2022-12-03T03:47:32.458Z,76.80
2022-12-03T03:50:08.178Z,76.54
2022-12-03T03:52:43.193Z,76.12
2022-12-03T03:55:15.867Z,75.89
2022-12-03T03:57:48.867Z,75.37
2022-12-03T04:00:21.747Z,75.29
2022-12-03T04:02:54.538Z,76.40
2022-12-03T04:05:28.232Z,75.77
2022-12-03T04:08:01.016Z,75.98
2022-12-03T04:10:52.352Z,75.61
2022-12-03T04:13:24.899Z,75.92
2022-12-03T04:15:57.507Z,75.46
2022-12-03T04:18:45.336Z,76.70
2022-12-03T04:21:40.698Z,75.88
2022-12-03T04:24:13.252Z,76.54
2022-12-03T04:27:04.681Z,76.28
2022-12-03T04:29:37.317Z,76.55
2022-12-03T04:32:28.508Z,76.54
2022-12-03T04:35:20.024Z,75.87
2022-12-03T04:37:52.547Z,75.95
2022-12-03T04:40:43.455Z,75.17
2022-12-03T04:43:15.908Z,76.29
2022-12-03T04:45:48.582Z,75.94
2022-12-03T04:48:21.148Z,75.51
2022-12-03T04:50:53.787Z,76.08
2022-12-03T04:53:26.278Z,76.16
2022-12-03T04:55:58.830Z,76.60
2022-12-03T04:58:31.299Z,76.13
2022-12-03T05:01:03.811Z,76.07
2022-12-03T05:03:36.385Z,76.61
2022-12-03T05:06:09.151Z,76.26
2022-12-03T05:08:41.600Z,76.27
2022-12-03T05:11:14.629Z,75.57
2022-12-03T05:13:47.155Z,75.71
2022-12-03T05:16:19.874Z,76.73
2022-12-03T05:18:52.524Z,76.14
2022-12-03T05:21:25.101Z,76.12
2022-12-03T05:23:57.641Z,76.10
2022-12-03T05:26:30.341Z,77.21
2022-12-03T05:29:03.042Z,76.38
2022-12-03T05:31:35.552Z,76.31
2022-12-03T05:34:08.054Z,76.41
2022-12-03T05:36:40.577Z,76.55
2022-12-03T05:39:13.165Z,77.43
2022-12-03T05:42:04.417Z,76.75
2022-12-03T05:44:36.925Z,77.12
2022-12-03T05:47:09.522Z,76.92
2022-12-03T05:49:42.058Z,77.63
2022-12-03T05:52:14.545Z,76.65
2022-12-03T05:54:47.096Z,76.52
2022-12-03T05:57:19.616Z,77.19
2022-12-03T05:59:52.139Z,77.21
2022-12-03T06:02:24.764Z,77.96
2022-12-03T06:04:57.363Z,76.66
2022-12-03T06:07:29.953Z,77.02
2022-12-03T06:10:03.942Z,77.26
2022-12-03T06:12:36.608Z,76.67
2022-12-03T06:15:11.003Z,77.94
2022-12-03T06:17:43.612Z,77.29
2022-12-03T06:20:19.600Z,77.19
2022-12-03T06:22:52.104Z,76.81
2022-12-03T06:25:24.671Z,77.49
2022-12-03T06:27:57.252Z,77.13
2022-12-03T06:30:29.934Z,76.92
2022-12-03T06:33:02.618Z,76.86
2022-12-03T06:35:36.504Z,77.02
2022-12-03T06:38:09.037Z,77.41
2022-12-03T06:40:41.531Z,76.99
2022-12-03T06:43:14.275Z,77.33
2022-12-03T06:45:48.057Z,77.56
2022-12-03T06:48:20.869Z,77.18
2022-12-03T06:50:53.316Z,77.61
2022-12-03T06:53:25.861Z,77.21
2022-12-03T06:55:58.383Z,78.09
2022-12-03T06:58:33.553Z,77.89
2022-12-03T07:01:06.078Z,78.04
2022-12-03T07:03:38.609Z,77.65
2022-12-03T07:06:11.112Z,77.81
2022-12-03T07:08:43.796Z,77.83
2022-12-03T07:11:31.321Z,77.44
2022-12-03T07:14:06.239Z,77.94
2022-12-03T07:16:39.437Z,77.44
2022-12-03T07:19:12.199Z,77.05
2022-12-03T07:21:44.708Z,77.22
2022-12-03T07:24:17.449Z,77.39
2022-12-03T07:26:49.960Z,77.43
2022-12-03T07:29:22.558Z,77.09
2022-12-03T07:31:55.175Z,77.32
2022-12-03T07:34:28.300Z,77.18
2022-12-03T07:37:00.833Z,77.28
2022-12-03T07:39:33.402Z,77.10
2022-12-03T07:42:05.956Z,76.75
2022-12-03T07:44:38.432Z,76.73
2022-12-03T07:47:10.966Z,76.63
2022-12-03T07:49:43.936Z,77.31
2022-12-03T07:52:16.563Z,77.11
2022-12-03T07:54:49.200Z,76.72
2022-12-03T07:57:21.768Z,75.89
2022-12-03T07:59:54.308Z,76.41
2022-12-03T08:02:26.836Z,76.55
2022-12-03T08:04:59.374Z,76.98
2022-12-03T08:07:31.862Z,77.11
2022-12-03T08:10:06.696Z,76.19
2022-12-03T08:12:42.602Z,76.83
2022-12-03T08:15:24.090Z,76.02
2022-12-03T08:18:00.343Z,76.73
2022-12-03T08:20:38.709Z,76.90
2022-12-03T08:23:22.103Z,76.08
2022-12-03T08:25:54.645Z,76.07
2022-12-03T08:28:27.141Z,75.85
2022-12-03T08:31:19.492Z,75.43
2022-12-03T08:33:59.174Z,75.27
2022-12-03T08:36:33.604Z,75.39
2022-12-03T08:39:43.010Z,75.76
2022-12-03T08:42:42.614Z,74.69
2022-12-03T08:45:31.889Z,74.77
2022-12-03T08:48:28.837Z,73.80
2022-12-03T08:51:15.309Z,73.74
2022-12-03T08:53:53.319Z,74.02
2022-12-03T08:56:35.788Z,74.20
2022-12-03T08:59:29.238Z,74.20
2022-12-03T09:02:02.105Z,73.54
2022-12-03T09:04:47.155Z,73.43
2022-12-03T09:07:19.659Z,73.05
2022-12-03T09:09:52.164Z,72.97
2022-12-03T09:12:24.630Z,72.98
2022-12-03T09:14:57.092Z,73.21
2022-12-03T09:17:29.675Z,73.55
2022-12-03T09:20:02.468Z,74.37
2022-12-03T09:22:35.023Z,73.70
2022-12-03T09:25:08.039Z,73.40
2022-12-03T09:27:40.530Z,73.87
2022-12-03T09:30:13.352Z,73.04
2022-12-03T09:32:45.850Z,72.92
2022-12-03T09:35:18.515Z,73.45
2022-12-03T09:37:51.057Z,73.39
2022-12-03T09:40:24.207Z,73.32
2022-12-03T09:42:59.855Z,72.71
2022-12-03T09:45:32.398Z,72.31
2022-12-03T09:48:05.354Z,73.05
2022-12-03T09:50:41.844Z,73.78
2022-12-03T09:53:20.930Z,73.59
2022-12-03T09:55:54.057Z,73.46
2022-12-03T09:58:34.339Z,72.81
2022-12-03T10:01:15.136Z,72.60
2022-12-03T10:03:51.156Z,73.01
2022-12-03T10:06:24.272Z,73.18
2022-12-03T10:08:56.964Z,72.64
2022-12-03T10:11:31.315Z,72.69
2022-12-03T10:14:05.104Z,71.14
2022-12-03T10:16:40.160Z,71.00
2022-12-03T10:19:25.280Z,71.15
2022-12-03T10:21:58.239Z,70.99
2022-12-03T10:24:36.584Z,71.67
2022-12-03T10:27:30.250Z,71.54
2022-12-03T10:30:14.535Z,71.94
2022-12-03T10:32:50.607Z,71.64
2022-12-03T10:35:42.160Z,71.87
2022-12-03T10:38:17.641Z,71.53
2022-12-03T10:40:50.934Z,72.13
2022-12-03T10:43:25.584Z,72.00
2022-12-03T10:46:22.805Z,71.56
2022-12-03T10:49:11.824Z,71.64
2022-12-03T10:51:48.274Z,71.21
2022-12-03T10:54:27.272Z,71.65
2022-12-03T10:57:01.521Z,70.95
2022-12-03T10:59:35.136Z,70.42
2022-12-03T11:02:21.838Z,69.91
2022-12-03T11:04:55.323Z,69.19
2022-12-03T11:07:28.793Z,68.93
2022-12-03T11:10:02.612Z,69.36
2022-12-03T11:12:35.629Z,69.28
2022-12-03T11:15:16.533Z,68.25
2022-12-03T11:17:52.975Z,67.83
2022-12-03T11:20:25.362Z,69.23
2022-12-03T11:22:59.870Z,69.29
2022-12-03T11:25:47.860Z,69.50
2022-12-03T11:28:20.256Z,69.35
2022-12-03T11:30:56.563Z,69.30
2022-12-03T11:33:40.579Z,69.71
2022-12-03T11:36:15.370Z,69.48
2022-12-03T11:38:54.999Z,69.64
2022-12-03T11:41:32.179Z,70.27
2022-12-03T11:44:31.148Z,69.85
2022-12-03T11:47:16.362Z,70.61
2022-12-03T11:49:49.100Z,69.85
2022-12-03T11:52:29.095Z,70.81
2022-12-03T11:55:16.045Z,70.37
2022-12-03T11:57:48.741Z,70.11
2022-12-03T12:00:24.368Z,70.04
2022-12-03T12:02:58.688Z,70.35
2022-12-03T12:05:34.384Z,69.81
2022-12-03T12:08:19.608Z,70.08
2022-12-03T12:10:52.337Z,70.65
2022-12-03T12:13:30.830Z,69.83
2022-12-03T12:16:06.207Z,69.69
2022-12-03T12:18:40.380Z,69.60
2022-12-03T12:21:43.268Z,70.05
2022-12-03T12:24:42.913Z,70.20
2022-12-03T12:27:49.317Z,69.76
2022-12-03T12:30:23.409Z,69.68
2022-12-03T12:33:13.349Z,69.48
2022-12-03T12:35:45.869Z,69.70
2022-12-03T12:38:24.180Z,70.17
2022-12-03T12:40:57.260Z,70.07
2022-12-03T12:43:32.503Z,68.98
2022-12-03T12:49:12.287Z,69.72
2022-12-03T12:51:47.718Z,69.45
2022-12-03T12:54:20.269Z,69.91
2022-12-03T12:56:53.136Z,69.74
2022-12-03T12:59:25.964Z,69.75
2022-12-03T13:02:01.124Z,69.94
2022-12-03T13:04:39.995Z,69.75
2022-12-03T13:07:12.476Z,69.54
2022-12-03T13:09:45.014Z,69.15
2022-12-03T13:12:23.422Z,70.29
2022-12-03T13:14:59.514Z,69.40
2022-12-03T13:17:31.980Z,69.93
2022-12-03T13:20:18.966Z,70.14
2022-12-03T13:22:51.479Z,71.45
2022-12-03T13:28:31.525Z,71.72
2022-12-03T13:31:43.530Z,71.25
2022-12-03T13:34:26.055Z,71.58
2022-12-03T13:37:01.096Z,72.05
2022-12-03T13:39:39.112Z,71.47
2022-12-03T13:42:46.448Z,72.11
2022-12-03T13:45:38.509Z,71.54
2022-12-03T13:48:23.471Z,72.22
2022-12-03T13:50:56.236Z,72.23
2022-12-03T13:53:40.100Z,71.34
2022-12-03T13:56:30.381Z,72.47
2022-12-03T13:59:04.460Z,71.22
2022-12-03T14:01:37.104Z,72.73
2022-12-03T14:04:10.030Z,71.95
2022-12-03T14:06:42.612Z,72.21
2022-12-03T14:09:15.148Z,72.09
2022-12-03T14:12:06.453Z,71.31
2022-12-03T14:14:39.130Z,72.28
2022-12-03T14:17:11.857Z,72.48
2022-12-03T14:19:44.725Z,71.66
2022-12-03T14:22:19.253Z,72.35
2022-12-03T14:24:53.049Z,72.38
2022-12-03T14:27:25.790Z,72.13
2022-12-03T14:29:58.650Z,72.11
2022-12-03T14:32:31.267Z,72.48
2022-12-03T14:35:09.657Z,72.88
2022-12-03T14:37:42.635Z,72.80
2022-12-03T14:40:19.739Z,73.97
2022-12-03T14:42:54.068Z,74.16
2022-12-03T14:45:28.481Z,73.04
2022-12-03T14:48:01.122Z,75.06
2022-12-03T14:50:33.597Z,74.93
2022-12-03T14:53:06.068Z,73.65
2022-12-03T14:55:38.614Z,74.78
2022-12-03T14:58:11.181Z,72.83
2022-12-03T15:00:43.712Z,73.62
2022-12-03T15:03:16.285Z,74.25
2022-12-03T15:05:49.072Z,73.28
2022-12-03T15:08:21.741Z,73.77
2022-12-03T15:10:54.683Z,73.60
2022-12-03T15:13:27.235Z,73.61
2022-12-03T15:15:59.846Z,73.45
2022-12-03T15:18:34.498Z,74.46
2022-12-03T15:21:07.018Z,74.24
2022-12-03T15:23:39.617Z,73.84
2022-12-03T15:26:12.146Z,73.79
2022-12-03T15:28:48.280Z,73.46
2022-12-03T15:31:21.203Z,73.62
2022-12-03T15:33:53.816Z,73.80
2022-12-03T15:36:26.527Z,73.92
2022-12-03T15:38:59.233Z,73.76
2022-12-03T15:41:31.843Z,72.81
2022-12-03T15:44:04.604Z,73.35
2022-12-03T15:46:37.281Z,73.77
2022-12-03T15:49:09.894Z,73.40
2022-12-03T15:51:42.479Z,73.58
2022-12-03T15:54:15.022Z,73.33
2022-12-03T15:56:48.838Z,74.50
2022-12-03T15:59:24.362Z,74.23
2022-12-03T16:01:56.941Z,73.60
2022-12-03T16:04:29.577Z,73.05
2022-12-03T16:07:02.246Z,73.38
2022-12-03T16:09:34.797Z,73.34
2022-12-03T16:12:07.332Z,74.33
2022-12-03T16:14:39.839Z,73.98
2022-12-03T16:17:12.391Z,73.67
2022-12-03T16:19:45.598Z,74.25
2022-12-03T16:22:18.143Z,73.64
2022-12-03T16:24:50.650Z,73.20
2022-12-03T16:27:25.820Z,73.45
2022-12-03T16:29:58.990Z,73.17
2022-12-03T16:32:31.609Z,75.00
2022-12-03T16:35:04.781Z,74.98
2022-12-03T16:37:37.285Z,74.72
2022-12-03T16:40:10.656Z,74.04
2022-12-03T16:42:43.175Z,73.29
2022-12-03T16:45:24.545Z,73.68
2022-12-03T16:47:57.106Z,73.88
2022-12-03T16:50:31.708Z,75.34
2022-12-03T16:53:04.381Z,74.21
2022-12-03T16:55:36.908Z,73.84
2022-12-03T16:58:09.899Z,74.22
2022-12-03T17:00:42.468Z,74.71
2022-12-03T17:03:16.139Z,74.99
2022-12-03T17:05:49.692Z,74.06
2022-12-03T17:08:27.992Z,73.94
2022-12-03T17:11:00.565Z,76.89
2022-12-03T17:13:33.080Z,75.73
2022-12-03T17:16:06.771Z,76.32
2022-12-03T17:18:39.388Z,76.16
2022-12-03T17:21:12.002Z,76.36
2022-12-03T17:23:46.236Z,76.04
2022-12-03T17:26:21.481Z,75.82
2022-12-03T17:28:53.993Z,75.98
2022-12-03T17:31:27.151Z,75.20
2022-12-03T17:33:59.720Z,77.00
2022-12-03T17:36:32.225Z,76.24
2022-12-03T17:39:04.741Z,76.51
2022-12-03T17:41:37.227Z,78.28
2022-12-03T17:44:24.801Z,77.18
2022-12-03T17:46:57.361Z,77.10
2022-12-03T17:49:31.674Z,76.61
2022-12-03T17:52:04.467Z,76.97
2022-12-03T17:55:01.745Z,76.85
2022-12-03T17:57:29.499Z,77.36
2022-12-03T18:00:02.195Z,77.06
2022-12-03T18:02:34.734Z,77.14
2022-12-03T18:05:07.636Z,76.57
2022-12-03T18:07:43.253Z,77.04
2022-12-03T18:10:15.914Z,77.18
2022-12-03T18:12:49.057Z,76.55
2022-12-03T18:15:21.536Z,77.08
2022-12-03T18:17:54.014Z,76.68
2022-12-03T18:20:26.815Z,76.82
2022-12-03T18:22:59.619Z,77.02
2022-12-03T18:25:32.211Z,76.00
2022-12-03T18:28:05.842Z,76.33
2022-12-03T18:30:38.470Z,75.97
2022-12-03T18:33:11.132Z,76.13
2022-12-03T18:35:44.537Z,76.07
2022-12-03T18:38:18.327Z,76.22
2022-12-03T18:40:55.735Z,76.54
2022-12-03T18:43:28.374Z,76.18
2022-12-03T18:46:00.959Z,76.12
2022-12-03T18:48:33.433Z,76.19
2022-12-03T18:51:18.812Z,75.91
2022-12-03T18:53:51.672Z,76.15
2022-12-03T18:56:24.199Z,76.75
2022-12-03T18:58:56.681Z,76.07
2022-12-03T19:01:29.274Z,76.67
2022-12-03T19:04:01.899Z,76.24
2022-12-03T19:06:34.386Z,76.06
2022-12-03T19:09:07.168Z,75.45
2022-12-03T19:11:39.780Z,76.53
2022-12-03T19:14:12.372Z,76.06
2022-12-03T19:16:45.408Z,76.49
2022-12-03T19:19:20.370Z,76.47
2022-12-03T19:21:54.264Z,76.08
2022-12-03T19:24:27.290Z,76.57
2022-12-03T19:26:59.908Z,76.41
2022-12-03T19:29:32.372Z,76.68
2022-12-03T19:32:05.546Z,76.54
2022-12-03T19:34:38.167Z,76.34
2022-12-03T19:37:10.697Z,76.10
2022-12-03T19:39:43.481Z,76.16
2022-12-03T19:42:17.257Z,76.68
2022-12-03T19:44:49.774Z,77.05
2022-12-03T19:47:24.692Z,77.73
2022-12-03T19:49:57.623Z,76.47
2022-12-03T19:52:30.281Z,76.30
2022-12-03T19:55:03.213Z,75.99
2022-12-03T19:57:35.678Z,76.52
2022-12-03T20:00:09.224Z,76.66
2022-12-03T20:02:41.785Z,77.06
2022-12-03T20:05:14.598Z,77.10
2022-12-03T20:07:47.426Z,76.88
2022-12-03T20:10:20.144Z,76.21
2022-12-03T20:12:54.509Z,77.13
2022-12-03T20:15:28.007Z,77.44
2022-12-03T20:18:00.571Z,76.51
2022-12-03T20:20:33.050Z,77.49
2022-12-03T20:23:05.583Z,76.56
2022-12-03T20:25:38.113Z,76.61
2022-12-03T20:28:10.610Z,76.33
2022-12-03T20:30:45.243Z,77.23
2022-12-03T20:33:17.838Z,76.64
2022-12-03T20:35:55.095Z,77.19
2022-12-03T20:38:27.718Z,76.56
2022-12-03T20:41:10.450Z,76.05
2022-12-03T20:43:43.089Z,76.74
2022-12-03T20:46:20.168Z,77.35
2022-12-03T20:48:56.572Z,77.65
2022-12-03T20:51:31.625Z,77.11
2022-12-03T20:54:04.408Z,77.42
2022-12-03T20:56:42.021Z,77.27
2022-12-03T20:59:17.187Z,77.51
2022-12-03T21:01:50.132Z,77.31
2022-12-03T21:04:22.796Z,77.64
2022-12-03T21:06:55.289Z,77.76
2022-12-03T21:09:27.941Z,77.86
2022-12-03T21:12:00.414Z,77.57
2022-12-03T21:14:32.998Z,77.34
2022-12-03T21:17:08.707Z,76.88
2022-12-03T21:19:42.061Z,77.15
2022-12-03T21:22:15.013Z,77.29
2022-12-03T21:24:47.702Z,76.98
2022-12-03T21:27:21.978Z,77.34
2022-12-03T21:29:55.505Z,77.69
2022-12-03T21:32:28.303Z,77.40
2022-12-03T21:35:00.945Z,77.98
2022-12-03T21:37:33.410Z,77.51
2022-12-03T21:40:07.149Z,77.92
2022-12-03T21:42:39.641Z,78.02
2022-12-03T21:45:12.312Z,78.13
2022-12-03T21:47:48.473Z,78.20
2022-12-03T21:50:21.191Z,78.03
2022-12-03T21:52:53.864Z,77.93
2022-12-03T21:55:26.628Z,78.73
2022-12-03T21:57:59.214Z,78.22
2022-12-03T22:00:31.793Z,78.67
2022-12-03T22:03:04.414Z,77.60
2022-12-03T22:05:40.313Z,77.82
2022-12-03T22:08:13.745Z,78.32
2022-12-03T22:10:46.324Z,78.25
2022-12-03T22:13:18.882Z,78.13
2022-12-03T22:15:51.483Z,77.44
2022-12-03T22:18:24.016Z,78.05
2022-12-03T22:20:56.543Z,78.37
2022-12-03T22:23:30.904Z,78.08
2022-12-03T22:26:11.177Z,77.95
2022-12-03T22:28:48.890Z,77.76
2022-12-03T22:31:21.676Z,77.18
2022-12-03T22:33:54.173Z,78.03
2022-12-03T22:36:26.699Z,78.09
2022-12-03T22:38:59.231Z,77.71
2022-12-03T22:41:31.733Z,77.16
2022-12-03T22:44:04.351Z,78.16
2022-12-03T22:46:36.947Z,77.38
2022-12-03T22:49:13.011Z,77.51
2022-12-03T22:51:47.147Z,77.18
2022-12-03T22:54:23.950Z,77.45
2022-12-03T22:56:56.903Z,77.26
2022-12-03T22:59:29.460Z,77.76
2022-12-03T23:02:02.019Z,77.96
2022-12-03T23:04:34.541Z,77.53
2022-12-03T23:07:08.261Z,77.06
2022-12-03T23:09:40.828Z,76.84
2022-12-03T23:12:14.564Z,76.74
2022-12-03T23:14:47.055Z,77.40
2022-12-03T23:17:19.555Z,77.41
2022-12-03T23:19:52.187Z,77.61
2022-12-03T23:22:24.796Z,77.92
2022-12-03T23:24:57.427Z,77.98
2022-12-03T23:27:30.324Z,77.47
2022-12-03T23:30:03.990Z,76.85
2022-12-03T23:32:36.779Z,77.70
2022-12-03T23:35:10.803Z,77.02
2022-12-03T23:37:44.410Z,78.08
2022-12-03T23:40:16.984Z,76.91
2022-12-03T23:42:49.931Z,78.30
2022-12-03T23:45:22.676Z,77.38
2022-12-03T23:47:58.384Z,77.69
2022-12-03T23:50:31.180Z,77.05
2022-12-03T23:53:03.801Z,77.71
2022-12-03T23:55:40.407Z,78.57
2022-12-03T23:58:12.846Z,78.12
